createdAt,value
2018-11-03T00:00:07.245Z,0
2018-11-03T00:00:33.380Z,0
2018-11-03T00:00:59.540Z,0
2018-11-03T00:01:25.671Z,0
2018-11-03T00:01:51.800Z,0
2018-11-03T00:02:17.929Z,0
2018-11-03T00:02:44.061Z,0
2018-11-03T00:03:10.211Z,0
2018-11-03T00:03:36.343Z,0
2018-11-03T00:04:02.475Z,0
2018-11-03T00:04:28.633Z,0
2018-11-03T00:04:54.768Z,0
2018-11-03T00:05:20.921Z,0
2018-11-03T00:05:47.055Z,0
2018-11-03T00:06:13.182Z,0
2018-11-03T00:06:39.316Z,0
2018-11-03T00:07:05.471Z,0
2018-11-03T00:07:31.609Z,0
2018-11-03T00:07:57.755Z,0
2018-11-03T00:08:23.907Z,0
2018-11-03T00:08:50.040Z,0
2018-11-03T00:09:16.173Z,0
2018-11-03T00:09:42.324Z,0
2018-11-03T00:10:08.451Z,0
2018-11-03T00:10:34.581Z,0
2018-11-03T00:11:00.719Z,0
2018-11-03T00:11:26.849Z,0
2018-11-03T00:11:52.982Z,0
2018-11-03T00:12:19.115Z,0
2018-11-03T00:12:45.301Z,0
2018-11-03T00:13:11.432Z,0
2018-11-03T00:13:37.576Z,0
2018-11-03T00:14:03.714Z,0
2018-11-03T00:14:29.851Z,0
2018-11-03T00:14:55.998Z,0
2018-11-03T00:15:22.136Z,0
2018-11-03T00:15:48.275Z,0
2018-11-03T00:16:14.405Z,0
2018-11-03T00:16:40.565Z,0
2018-11-03T00:17:06.736Z,0
2018-11-03T00:17:32.861Z,0
2018-11-03T00:17:59.035Z,0
2018-11-03T00:18:25.176Z,0
2018-11-03T00:18:51.311Z,0
2018-11-03T00:19:17.444Z,0
2018-11-03T00:19:43.572Z,0
2018-11-03T00:20:09.700Z,0
2018-11-03T00:20:35.857Z,0
2018-11-03T00:21:01.986Z,0
2018-11-03T00:21:28.121Z,0
2018-11-03T00:21:54.249Z,0
2018-11-03T00:22:20.381Z,0
2018-11-03T00:22:46.518Z,0
2018-11-03T00:23:12.667Z,0
2018-11-03T00:23:38.804Z,0
2018-11-03T00:24:04.939Z,0
2018-11-03T00:24:31.072Z,0
2018-11-03T00:24:57.202Z,0
2018-11-03T00:25:23.334Z,0
2018-11-03T00:25:49.467Z,0
2018-11-03T00:26:15.598Z,0
2018-11-03T00:26:41.730Z,0
2018-11-03T00:27:07.861Z,0
2018-11-03T00:27:34.000Z,0
2018-11-03T00:28:00.184Z,0
2018-11-03T00:28:26.300Z,0
2018-11-03T00:28:52.536Z,0
2018-11-03T00:29:18.668Z,0
2018-11-03T00:29:44.804Z,0
2018-11-03T00:30:10.939Z,0
2018-11-03T00:30:37.064Z,0
2018-11-03T00:31:03.195Z,0
2018-11-03T00:31:29.322Z,0
2018-11-03T00:31:55.511Z,0
2018-11-03T00:32:21.637Z,0
2018-11-03T00:32:47.741Z,0
2018-11-03T00:33:13.870Z,0
2018-11-03T00:33:40.027Z,0
2018-11-03T00:34:06.159Z,0
2018-11-03T00:34:32.297Z,0
2018-11-03T00:34:58.418Z,0
2018-11-03T00:35:24.553Z,0
2018-11-03T00:35:50.687Z,0
2018-11-03T00:36:16.818Z,0
2018-11-03T00:36:42.963Z,0
2018-11-03T00:37:09.123Z,0
2018-11-03T00:37:35.254Z,0
2018-11-03T00:38:01.390Z,0
2018-11-03T00:38:27.520Z,0
2018-11-03T00:38:53.681Z,0
2018-11-03T00:39:19.864Z,0
2018-11-03T00:39:45.995Z,0
2018-11-03T00:40:12.129Z,0
2018-11-03T00:40:38.287Z,0
2018-11-03T00:41:04.412Z,0
2018-11-03T00:41:30.544Z,0
2018-11-03T00:41:56.678Z,0
2018-11-03T00:42:22.805Z,0
2018-11-03T00:42:48.951Z,0
2018-11-03T00:43:15.123Z,0
2018-11-03T00:43:41.262Z,0
2018-11-03T00:44:07.396Z,0
2018-11-03T00:44:33.557Z,0
2018-11-03T00:44:59.671Z,0
2018-11-03T00:45:25.806Z,0
2018-11-03T00:45:51.965Z,0
2018-11-03T00:46:18.126Z,0
2018-11-03T00:46:44.247Z,0
2018-11-03T00:47:10.399Z,0
2018-11-03T00:47:36.531Z,0
2018-11-03T00:48:02.661Z,0
2018-11-03T00:48:28.788Z,0
2018-11-03T00:48:54.971Z,0
2018-11-03T00:49:21.104Z,0
2018-11-03T00:49:47.235Z,0
2018-11-03T00:50:13.398Z,0
2018-11-03T00:50:39.545Z,0
2018-11-03T00:51:05.717Z,0
2018-11-03T00:51:31.882Z,0
2018-11-03T00:51:58.004Z,0
2018-11-03T00:52:24.140Z,0
2018-11-03T00:52:50.292Z,0
2018-11-03T00:53:16.426Z,0
2018-11-03T00:53:42.573Z,0
2018-11-03T00:54:08.711Z,0
2018-11-03T00:54:34.833Z,0
2018-11-03T00:55:00.965Z,0
2018-11-03T00:55:27.085Z,0
2018-11-03T00:55:53.222Z,0
2018-11-03T00:56:19.355Z,0
2018-11-03T00:56:45.487Z,0
2018-11-03T00:57:11.621Z,0
2018-11-03T00:57:37.754Z,0
2018-11-03T00:58:03.872Z,0
2018-11-03T00:58:30.005Z,0
2018-11-03T00:58:56.132Z,0
2018-11-03T00:59:22.292Z,0
2018-11-03T00:59:48.434Z,0
2018-11-03T01:00:14.586Z,0
2018-11-03T01:00:40.719Z,0
2018-11-03T01:01:06.850Z,0
2018-11-03T01:01:32.979Z,0
2018-11-03T01:01:59.107Z,0
2018-11-03T01:02:25.242Z,0
2018-11-03T01:02:51.369Z,0
2018-11-03T01:03:17.523Z,0
2018-11-03T01:03:43.654Z,0
2018-11-03T01:04:09.787Z,0
2018-11-03T01:04:35.937Z,0
2018-11-03T01:05:02.066Z,0
2018-11-03T01:05:28.211Z,0
2018-11-03T01:05:54.375Z,0
2018-11-03T01:06:20.523Z,0
2018-11-03T01:06:46.709Z,0
2018-11-03T01:07:12.864Z,0
2018-11-03T01:07:38.994Z,0
2018-11-03T01:08:05.172Z,0
2018-11-03T01:08:31.301Z,0
2018-11-03T01:08:57.438Z,0
2018-11-03T01:09:23.563Z,0
2018-11-03T01:09:49.702Z,0
2018-11-03T01:10:15.831Z,0
2018-11-03T01:10:41.959Z,0
2018-11-03T01:11:08.087Z,0
2018-11-03T01:11:34.223Z,0
2018-11-03T01:12:00.408Z,0
2018-11-03T01:12:26.535Z,0
2018-11-03T01:12:52.672Z,0
2018-11-03T01:13:18.821Z,0
2018-11-03T01:13:44.995Z,0
2018-11-03T01:14:11.101Z,0
2018-11-03T01:14:37.223Z,0
2018-11-03T01:15:03.358Z,0
2018-11-03T01:15:29.487Z,0
2018-11-03T01:15:55.620Z,0
2018-11-03T01:16:21.752Z,0
2018-11-03T01:16:47.878Z,0
2018-11-03T01:17:13.999Z,0
2018-11-03T01:17:40.132Z,0
2018-11-03T01:18:06.269Z,0
2018-11-03T01:18:32.418Z,0
2018-11-03T01:18:58.544Z,0
2018-11-03T01:19:24.677Z,0
2018-11-03T01:19:50.811Z,0
2018-11-03T01:20:16.971Z,0
2018-11-03T01:20:43.100Z,0
2018-11-03T01:21:09.234Z,0
2018-11-03T01:21:35.363Z,0
2018-11-03T01:22:01.493Z,0
2018-11-03T01:22:27.627Z,0
2018-11-03T01:22:53.755Z,0
2018-11-03T01:23:19.886Z,0
2018-11-03T01:23:46.143Z,0
2018-11-03T01:24:12.232Z,0
2018-11-03T01:24:38.383Z,0
2018-11-03T01:25:04.516Z,0
2018-11-03T01:25:30.647Z,0
2018-11-03T01:25:56.775Z,0
2018-11-03T01:26:22.929Z,0
2018-11-03T01:26:49.065Z,0
2018-11-03T01:27:15.225Z,0
2018-11-03T01:27:41.359Z,0
2018-11-03T01:28:07.485Z,0
2018-11-03T01:28:33.637Z,0
2018-11-03T01:28:59.815Z,0
2018-11-03T01:29:25.965Z,0
2018-11-03T01:29:52.097Z,0
2018-11-03T01:30:18.275Z,0
2018-11-03T01:30:44.429Z,0
2018-11-03T01:31:10.563Z,0
2018-11-03T01:31:36.689Z,0
2018-11-03T01:32:02.827Z,0
2018-11-03T01:32:29.007Z,0
2018-11-03T01:32:55.116Z,0
2018-11-03T01:33:21.248Z,0
2018-11-03T01:33:47.403Z,0
2018-11-03T01:34:13.537Z,0
2018-11-03T01:34:39.693Z,0
2018-11-03T01:35:05.825Z,0
2018-11-03T01:35:31.957Z,0
2018-11-03T01:35:58.091Z,0
2018-11-03T01:36:24.217Z,0
2018-11-03T01:36:50.354Z,0
2018-11-03T01:37:16.482Z,0
2018-11-03T01:37:42.648Z,0
2018-11-03T01:38:08.743Z,0
2018-11-03T01:38:34.869Z,0
2018-11-03T01:39:01.006Z,0
2018-11-03T01:39:27.161Z,0
2018-11-03T01:39:53.340Z,0
2018-11-03T01:40:19.485Z,0
2018-11-03T01:40:45.623Z,0
2018-11-03T01:41:11.790Z,0
2018-11-03T01:41:37.943Z,0
2018-11-03T01:42:04.102Z,0
2018-11-03T01:42:30.259Z,0
2018-11-03T01:42:56.389Z,0
2018-11-03T01:43:22.537Z,0
2018-11-03T01:43:48.697Z,0
2018-11-03T01:44:14.823Z,0
2018-11-03T01:44:40.954Z,0
2018-11-03T01:45:07.092Z,0
2018-11-03T01:45:33.222Z,0
2018-11-03T01:45:59.352Z,0
2018-11-03T01:46:25.478Z,0
2018-11-03T01:46:51.612Z,0
2018-11-03T01:47:17.737Z,0
2018-11-03T01:47:43.872Z,0
2018-11-03T01:48:10.001Z,0
2018-11-03T01:48:36.131Z,0
2018-11-03T01:49:02.264Z,0
2018-11-03T01:49:28.439Z,0
2018-11-03T01:49:54.578Z,0
2018-11-03T01:50:20.727Z,0
2018-11-03T01:50:46.862Z,0
2018-11-03T01:51:12.993Z,0
2018-11-03T01:51:39.149Z,0
2018-11-03T01:52:05.274Z,0
2018-11-03T01:52:31.432Z,0
2018-11-03T01:52:57.561Z,0
2018-11-03T01:53:23.696Z,0
2018-11-03T01:53:49.847Z,0
2018-11-03T01:54:15.984Z,0
2018-11-03T01:54:42.112Z,0
2018-11-03T01:55:08.245Z,0
2018-11-03T01:55:34.392Z,0
2018-11-03T01:56:00.525Z,0
2018-11-03T01:56:26.684Z,0
2018-11-03T01:56:52.815Z,0
2018-11-03T01:57:18.951Z,0
2018-11-03T01:57:45.085Z,0
2018-11-03T01:58:11.219Z,0
2018-11-03T01:58:37.376Z,0
2018-11-03T01:59:03.513Z,0
2018-11-03T01:59:29.639Z,0
2018-11-03T01:59:55.773Z,0
2018-11-03T02:00:21.906Z,0
2018-11-03T02:00:48.050Z,0
2018-11-03T02:01:14.190Z,0
2018-11-03T02:01:40.373Z,0
2018-11-03T02:02:06.523Z,0
2018-11-03T02:02:32.643Z,0
2018-11-03T02:02:58.817Z,0
2018-11-03T02:03:24.943Z,0
2018-11-03T02:03:51.070Z,0
2018-11-03T02:04:17.263Z,0
2018-11-03T02:04:43.413Z,0
2018-11-03T02:05:09.590Z,0
2018-11-03T02:05:35.744Z,0
2018-11-03T02:06:01.894Z,0
2018-11-03T02:06:28.020Z,0
2018-11-03T02:06:54.146Z,0
2018-11-03T02:07:20.272Z,0
2018-11-03T02:07:46.405Z,0
2018-11-03T02:08:12.538Z,0
2018-11-03T02:08:38.665Z,0
2018-11-03T02:09:04.797Z,0
2018-11-03T02:09:30.935Z,0
2018-11-03T02:09:57.067Z,0
2018-11-03T02:10:23.200Z,0
2018-11-03T02:10:49.325Z,0
2018-11-03T02:11:15.462Z,0
2018-11-03T02:11:41.633Z,0
2018-11-03T02:12:07.794Z,0
2018-11-03T02:12:33.937Z,0
2018-11-03T02:13:00.101Z,0
2018-11-03T02:13:26.252Z,0
2018-11-03T02:13:52.396Z,0
2018-11-03T02:14:18.537Z,0
2018-11-03T02:14:44.688Z,0
2018-11-03T02:15:10.843Z,0
2018-11-03T02:15:36.982Z,0
2018-11-03T02:16:03.105Z,0
2018-11-03T02:16:29.237Z,0
2018-11-03T02:16:55.366Z,0
2018-11-03T02:17:21.527Z,0
2018-11-03T02:17:47.652Z,0
2018-11-03T02:18:13.780Z,0
2018-11-03T02:18:39.915Z,0
2018-11-03T02:19:06.051Z,0
2018-11-03T02:19:32.234Z,0
2018-11-03T02:19:58.351Z,0
2018-11-03T02:20:24.482Z,0
2018-11-03T02:20:50.605Z,0
2018-11-03T02:21:16.739Z,0
2018-11-03T02:21:42.874Z,0
2018-11-03T02:22:09.000Z,0
2018-11-03T02:22:35.135Z,0
2018-11-03T02:23:01.282Z,0
2018-11-03T02:23:27.417Z,0
2018-11-03T02:23:53.542Z,0
2018-11-03T02:24:19.706Z,0
2018-11-03T02:24:45.861Z,0
2018-11-03T02:25:11.981Z,0
2018-11-03T02:25:38.136Z,0
2018-11-03T02:26:04.273Z,0
2018-11-03T02:26:30.404Z,0
2018-11-03T02:26:56.528Z,0
2018-11-03T02:27:22.686Z,0
2018-11-03T02:27:48.855Z,0
2018-11-03T02:28:14.997Z,0
2018-11-03T02:28:41.121Z,0
2018-11-03T02:29:07.250Z,0
2018-11-03T02:29:33.393Z,0
2018-11-03T02:29:59.529Z,0
2018-11-03T02:30:25.707Z,0
2018-11-03T02:30:51.898Z,0
2018-11-03T02:31:18.098Z,0
2018-11-03T02:31:44.256Z,0
2018-11-03T02:32:10.436Z,0
2018-11-03T02:32:36.560Z,0
2018-11-03T02:33:02.689Z,0
2018-11-03T02:33:28.826Z,0
2018-11-03T02:33:54.959Z,0
2018-11-03T02:34:21.123Z,0
2018-11-03T02:34:47.257Z,0
2018-11-03T02:35:13.388Z,0
2018-11-03T02:35:39.535Z,0
2018-11-03T02:36:05.665Z,0
2018-11-03T02:36:31.825Z,0
2018-11-03T02:36:57.957Z,0
2018-11-03T02:37:24.132Z,0
2018-11-03T02:37:50.288Z,0
2018-11-03T02:38:16.461Z,0
2018-11-03T02:38:42.618Z,0
2018-11-03T02:39:08.741Z,0
2018-11-03T02:39:34.875Z,0
2018-11-03T02:40:01.009Z,0
2018-11-03T02:40:27.140Z,0
2018-11-03T02:40:53.307Z,0
2018-11-03T02:41:19.430Z,0
2018-11-03T02:41:45.585Z,0
2018-11-03T02:42:11.740Z,0
2018-11-03T02:42:37.870Z,0
2018-11-03T02:43:04.044Z,0
2018-11-03T02:43:30.207Z,0
2018-11-03T02:43:56.362Z,0
2018-11-03T02:44:22.521Z,0
2018-11-03T02:44:48.702Z,0
2018-11-03T02:45:14.804Z,0
2018-11-03T02:45:40.932Z,0
2018-11-03T02:46:07.087Z,0
2018-11-03T02:46:33.243Z,0
2018-11-03T02:46:59.369Z,0
2018-11-03T02:47:25.523Z,0
2018-11-03T02:47:51.677Z,0
2018-11-03T02:48:17.811Z,0
2018-11-03T02:48:43.981Z,0
2018-11-03T02:49:10.159Z,0
2018-11-03T02:49:36.360Z,0
2018-11-03T02:50:02.463Z,0
2018-11-03T02:50:28.589Z,0
2018-11-03T02:50:54.716Z,0
2018-11-03T02:51:20.873Z,0
2018-11-03T02:51:47.027Z,0
2018-11-03T02:52:13.202Z,0
2018-11-03T02:52:39.336Z,0
2018-11-03T02:53:05.503Z,0
2018-11-03T02:53:31.650Z,0
2018-11-03T02:53:57.831Z,0
2018-11-03T02:54:23.992Z,0
2018-11-03T02:54:50.120Z,0
2018-11-03T02:55:16.244Z,0
2018-11-03T02:55:42.402Z,0
2018-11-03T02:56:08.566Z,0
2018-11-03T02:56:34.703Z,0
2018-11-03T02:57:00.827Z,0
2018-11-03T02:57:26.966Z,0
2018-11-03T02:57:53.091Z,0
2018-11-03T02:58:19.227Z,0
2018-11-03T02:58:45.398Z,0
2018-11-03T02:59:11.527Z,0
2018-11-03T02:59:37.680Z,0
2018-11-03T03:00:03.830Z,0
2018-11-03T03:00:29.987Z,0
2018-11-03T03:00:56.146Z,0
2018-11-03T03:01:22.275Z,0
2018-11-03T03:01:48.407Z,0
2018-11-03T03:02:14.538Z,0
2018-11-03T03:02:40.670Z,0
2018-11-03T03:03:06.825Z,0
2018-11-03T03:03:32.985Z,0
2018-11-03T03:03:59.136Z,0
2018-11-03T03:04:25.278Z,0
2018-11-03T03:04:51.420Z,0
2018-11-03T03:05:17.562Z,0
2018-11-03T03:05:43.690Z,0
2018-11-03T03:06:09.835Z,0
2018-11-03T03:06:35.970Z,0
2018-11-03T03:07:02.138Z,0
2018-11-03T03:07:28.254Z,0
2018-11-03T03:07:54.389Z,0
2018-11-03T03:08:20.531Z,0
2018-11-03T03:08:46.661Z,0
2018-11-03T03:09:12.810Z,0
2018-11-03T03:09:38.943Z,0
2018-11-03T03:10:05.104Z,0
2018-11-03T03:10:31.274Z,0
2018-11-03T03:10:57.377Z,0
2018-11-03T03:11:23.503Z,0
2018-11-03T03:11:49.671Z,0
2018-11-03T03:12:15.821Z,0
2018-11-03T03:12:41.952Z,0
2018-11-03T03:13:08.130Z,0
2018-11-03T03:13:34.308Z,0
2018-11-03T03:14:00.437Z,0
2018-11-03T03:14:26.583Z,0
2018-11-03T03:14:52.728Z,0
2018-11-03T03:15:18.870Z,0
2018-11-03T03:15:45.017Z,0
2018-11-03T03:16:11.170Z,0
2018-11-03T03:16:37.346Z,0
2018-11-03T03:17:03.500Z,0
2018-11-03T03:17:29.676Z,0
2018-11-03T03:17:55.808Z,0
2018-11-03T03:18:21.964Z,0
2018-11-03T03:18:48.129Z,0
2018-11-03T03:19:14.282Z,0
2018-11-03T03:19:40.412Z,0
2018-11-03T03:20:06.549Z,0
2018-11-03T03:20:32.676Z,0
2018-11-03T03:20:58.824Z,0
2018-11-03T03:21:24.983Z,0
2018-11-03T03:21:51.159Z,0
2018-11-03T03:22:17.291Z,0
2018-11-03T03:22:43.438Z,0
2018-11-03T03:23:09.575Z,0
2018-11-03T03:23:35.698Z,0
2018-11-03T03:24:01.852Z,0
2018-11-03T03:24:28.003Z,0
2018-11-03T03:24:54.137Z,0
2018-11-03T03:25:20.273Z,0
2018-11-03T03:25:46.474Z,0
2018-11-03T03:26:12.556Z,0
2018-11-03T03:26:38.680Z,0
2018-11-03T03:27:04.833Z,0
2018-11-03T03:27:30.963Z,0
2018-11-03T03:27:57.127Z,0
2018-11-03T03:28:23.283Z,0
2018-11-03T03:28:49.445Z,0
2018-11-03T03:29:15.527Z,0
2018-11-03T03:29:41.830Z,0
2018-11-03T03:30:07.830Z,0
2018-11-03T03:30:33.963Z,0
2018-11-03T03:31:00.112Z,0
2018-11-03T03:31:26.269Z,0
2018-11-03T03:31:52.405Z,0
2018-11-03T03:32:18.552Z,0
2018-11-03T03:32:44.718Z,0
2018-11-03T03:33:10.891Z,0
2018-11-03T03:33:37.021Z,0
2018-11-03T03:34:03.143Z,0
2018-11-03T03:34:29.277Z,0
2018-11-03T03:34:55.440Z,0
2018-11-03T03:35:21.578Z,0
2018-11-03T03:35:47.746Z,0
2018-11-03T03:36:13.895Z,0
2018-11-03T03:36:40.045Z,0
2018-11-03T03:37:06.198Z,0
2018-11-03T03:37:32.325Z,0
2018-11-03T03:37:58.454Z,0
2018-11-03T03:38:24.633Z,0
2018-11-03T03:38:50.769Z,0
2018-11-03T03:39:16.910Z,0
2018-11-03T03:39:43.036Z,0
2018-11-03T03:40:09.214Z,0
2018-11-03T03:40:35.340Z,0
2018-11-03T03:41:01.495Z,0
2018-11-03T03:41:27.624Z,0
2018-11-03T03:41:53.755Z,0
2018-11-03T03:42:19.930Z,0
2018-11-03T03:42:46.085Z,0
2018-11-03T03:43:12.235Z,0
2018-11-03T03:43:38.369Z,0
2018-11-03T03:44:04.527Z,0
2018-11-03T03:44:30.704Z,0
2018-11-03T03:44:56.835Z,0
2018-11-03T03:45:22.971Z,0
2018-11-03T03:45:49.116Z,0
2018-11-03T03:46:15.270Z,0
2018-11-03T03:46:41.429Z,0
2018-11-03T03:47:07.562Z,0
2018-11-03T03:47:33.727Z,0
2018-11-03T03:47:59.862Z,0
2018-11-03T03:48:26.016Z,0
2018-11-03T03:48:52.150Z,0
2018-11-03T03:49:18.305Z,0
2018-11-03T03:49:44.442Z,0
2018-11-03T03:50:10.618Z,0
2018-11-03T03:50:36.730Z,0
2018-11-03T03:51:02.855Z,0
2018-11-03T03:51:29.013Z,0
2018-11-03T03:51:55.143Z,0
2018-11-03T03:52:21.279Z,0
2018-11-03T03:52:47.406Z,0
2018-11-03T03:53:13.585Z,0
2018-11-03T03:53:39.724Z,0
2018-11-03T03:54:05.892Z,0
2018-11-03T03:54:32.023Z,0
2018-11-03T03:54:58.155Z,0
2018-11-03T03:55:24.281Z,0
2018-11-03T03:55:50.413Z,0
2018-11-03T03:56:16.569Z,0
2018-11-03T03:56:42.670Z,0
2018-11-03T03:57:08.821Z,0
2018-11-03T03:57:34.951Z,0
2018-11-03T03:58:01.077Z,0
2018-11-03T03:58:27.206Z,0
2018-11-03T03:58:53.406Z,0
2018-11-03T03:59:19.538Z,0
2018-11-03T03:59:45.685Z,0
2018-11-03T04:00:11.843Z,0
2018-11-03T04:00:37.971Z,0
2018-11-03T04:01:04.109Z,0
2018-11-03T04:01:30.238Z,0
2018-11-03T04:01:56.393Z,0
2018-11-03T04:02:22.548Z,0
2018-11-03T04:02:48.682Z,0
2018-11-03T04:03:14.860Z,0
2018-11-03T04:03:41.000Z,0
2018-11-03T04:04:07.144Z,0
2018-11-03T04:04:33.276Z,0
2018-11-03T04:04:59.469Z,0
2018-11-03T04:05:25.600Z,0
2018-11-03T04:05:51.739Z,0
2018-11-03T04:06:17.894Z,0
2018-11-03T04:06:44.067Z,0
2018-11-03T04:07:10.198Z,0
2018-11-03T04:07:36.328Z,0
2018-11-03T04:08:02.509Z,0
2018-11-03T04:08:28.637Z,0
2018-11-03T04:08:54.776Z,0
2018-11-03T04:09:20.931Z,0
2018-11-03T04:09:47.055Z,0
2018-11-03T04:10:13.184Z,0
2018-11-03T04:10:39.310Z,0
2018-11-03T04:11:05.448Z,0
2018-11-03T04:11:31.569Z,0
2018-11-03T04:11:57.740Z,0
2018-11-03T04:12:23.856Z,0
2018-11-03T04:12:49.996Z,0
2018-11-03T04:13:16.152Z,0
2018-11-03T04:13:42.277Z,0
2018-11-03T04:14:08.411Z,0
2018-11-03T04:14:34.539Z,0
2018-11-03T04:15:00.695Z,0
2018-11-03T04:15:26.861Z,0
2018-11-03T04:15:53.004Z,0
2018-11-03T04:16:19.149Z,0
2018-11-03T04:16:45.276Z,0
2018-11-03T04:17:11.418Z,0
2018-11-03T04:17:37.574Z,0
2018-11-03T04:18:03.706Z,0
2018-11-03T04:18:29.831Z,0
2018-11-03T04:18:55.971Z,0
2018-11-03T04:19:22.096Z,0
2018-11-03T04:19:48.229Z,0
2018-11-03T04:20:14.364Z,0
2018-11-03T04:20:40.521Z,0
2018-11-03T04:21:06.624Z,0
2018-11-03T04:21:32.796Z,0
2018-11-03T04:21:58.929Z,0
2018-11-03T04:22:25.099Z,0
2018-11-03T04:22:51.252Z,0
2018-11-03T04:23:17.389Z,0
2018-11-03T04:23:43.570Z,0
2018-11-03T04:24:09.706Z,0
2018-11-03T04:24:35.846Z,0
2018-11-03T04:25:02.004Z,0
2018-11-03T04:25:28.161Z,0
2018-11-03T04:25:54.284Z,0
2018-11-03T04:26:20.420Z,0
2018-11-03T04:26:46.561Z,0
2018-11-03T04:27:12.686Z,0
2018-11-03T04:27:38.864Z,0
2018-11-03T04:28:05.027Z,0
2018-11-03T04:28:31.155Z,0
2018-11-03T04:28:57.312Z,0
2018-11-03T04:29:23.462Z,0
2018-11-03T04:29:49.590Z,0
2018-11-03T04:30:15.749Z,0
2018-11-03T04:30:41.868Z,0
2018-11-03T04:31:08.006Z,0
2018-11-03T04:31:34.129Z,0
2018-11-03T04:32:00.291Z,0
2018-11-03T04:32:26.415Z,0
2018-11-03T04:32:52.564Z,0
2018-11-03T04:33:18.698Z,0
2018-11-03T04:33:44.829Z,0
2018-11-03T04:34:10.985Z,0
2018-11-03T04:34:37.112Z,0
2018-11-03T04:35:03.270Z,0
2018-11-03T04:35:29.414Z,0
2018-11-03T04:35:55.548Z,0
2018-11-03T04:36:21.675Z,0
2018-11-03T04:36:47.834Z,0
2018-11-03T04:37:13.962Z,0
2018-11-03T04:37:40.167Z,0
2018-11-03T04:38:06.323Z,0
2018-11-03T04:38:32.419Z,0
2018-11-03T04:38:58.556Z,0
2018-11-03T04:39:24.686Z,0
2018-11-03T04:39:50.810Z,0
2018-11-03T04:40:16.992Z,0
2018-11-03T04:40:43.142Z,0
2018-11-03T04:41:09.270Z,0
2018-11-03T04:41:35.445Z,0
2018-11-03T04:42:01.599Z,0
2018-11-03T04:42:27.730Z,0
2018-11-03T04:42:53.891Z,0
2018-11-03T04:43:20.018Z,0
2018-11-03T04:43:46.145Z,0
2018-11-03T04:44:12.279Z,0
2018-11-03T04:44:38.431Z,0
2018-11-03T04:45:04.562Z,0
2018-11-03T04:45:30.817Z,0
2018-11-03T04:45:56.876Z,0
2018-11-03T04:46:23.030Z,0
2018-11-03T04:46:49.186Z,0
2018-11-03T04:47:15.318Z,0
2018-11-03T04:47:41.528Z,0
2018-11-03T04:48:07.639Z,0
2018-11-03T04:48:33.807Z,0
2018-11-03T04:48:59.896Z,0
2018-11-03T04:49:26.056Z,0
2018-11-03T04:49:52.201Z,0
2018-11-03T04:50:18.357Z,0
2018-11-03T04:50:44.523Z,0
2018-11-03T04:51:10.671Z,0
2018-11-03T04:51:36.801Z,0
2018-11-03T04:52:02.928Z,0
2018-11-03T04:52:29.064Z,0
2018-11-03T04:52:55.188Z,0
2018-11-03T04:53:21.323Z,0
2018-11-03T04:53:47.500Z,0
2018-11-03T04:54:13.654Z,0
2018-11-03T04:54:39.783Z,0
2018-11-03T04:55:05.978Z,0
2018-11-03T04:55:32.064Z,0
2018-11-03T04:55:58.184Z,0
2018-11-03T04:56:24.319Z,0
2018-11-03T04:56:50.447Z,0
2018-11-03T04:57:16.572Z,0
2018-11-03T04:57:42.704Z,0
2018-11-03T04:58:08.838Z,0
2018-11-03T04:58:34.975Z,0
2018-11-03T04:59:01.129Z,0
2018-11-03T04:59:27.283Z,0
2018-11-03T04:59:53.420Z,0
2018-11-03T05:00:19.547Z,0
2018-11-03T05:00:45.675Z,0
2018-11-03T05:01:11.807Z,0
2018-11-03T05:01:37.931Z,0
2018-11-03T05:02:04.067Z,0
2018-11-03T05:02:30.222Z,0
2018-11-03T05:02:56.324Z,0
2018-11-03T05:03:22.460Z,0
2018-11-03T05:03:48.588Z,0
2018-11-03T05:04:14.719Z,0
2018-11-03T05:04:40.850Z,0
2018-11-03T05:05:06.980Z,0
2018-11-03T05:05:33.118Z,0
2018-11-03T05:05:59.265Z,0
2018-11-03T05:06:25.460Z,0
2018-11-03T05:06:51.567Z,0
2018-11-03T05:07:17.697Z,0
2018-11-03T05:07:43.828Z,0
2018-11-03T05:08:09.983Z,0
2018-11-03T05:08:36.138Z,0
2018-11-03T05:09:02.319Z,0
2018-11-03T05:09:28.445Z,0
2018-11-03T05:09:54.597Z,0
2018-11-03T05:10:20.805Z,0
2018-11-03T05:10:46.877Z,0
2018-11-03T05:11:13.006Z,0
2018-11-03T05:11:39.143Z,0
2018-11-03T05:12:05.270Z,0
2018-11-03T05:12:31.409Z,0
2018-11-03T05:12:57.553Z,0
2018-11-03T05:13:23.679Z,0
2018-11-03T05:13:49.815Z,0
2018-11-03T05:14:15.967Z,0
2018-11-03T05:14:42.116Z,0
2018-11-03T05:15:08.247Z,0
2018-11-03T05:15:34.405Z,0
2018-11-03T05:16:00.535Z,0
2018-11-03T05:16:26.666Z,0
2018-11-03T05:16:52.790Z,0
2018-11-03T05:17:18.917Z,0
2018-11-03T05:17:45.075Z,0
2018-11-03T05:18:11.201Z,0
2018-11-03T05:18:37.331Z,0
2018-11-03T05:19:03.483Z,0
2018-11-03T05:19:29.619Z,0
2018-11-03T05:19:55.744Z,0
2018-11-03T05:20:21.897Z,0
2018-11-03T05:20:48.031Z,0
2018-11-03T05:21:14.248Z,0
2018-11-03T05:21:40.315Z,0
2018-11-03T05:22:06.449Z,0
2018-11-03T05:22:32.575Z,0
2018-11-03T05:22:58.709Z,0
2018-11-03T05:23:24.836Z,0
2018-11-03T05:23:50.971Z,0
2018-11-03T05:24:17.121Z,0
2018-11-03T05:24:43.278Z,0
2018-11-03T05:25:09.403Z,0
2018-11-03T05:25:35.560Z,0
2018-11-03T05:26:01.692Z,0
2018-11-03T05:26:27.831Z,0
2018-11-03T05:26:53.978Z,0
2018-11-03T05:27:20.123Z,0
2018-11-03T05:27:46.249Z,0
2018-11-03T05:28:12.384Z,0
2018-11-03T05:28:38.541Z,0
2018-11-03T05:29:04.674Z,0
2018-11-03T05:29:30.802Z,0
2018-11-03T05:29:56.930Z,0
2018-11-03T05:30:23.081Z,0
2018-11-03T05:30:49.262Z,0
2018-11-03T05:31:15.430Z,0
2018-11-03T05:31:41.550Z,0
2018-11-03T05:32:07.681Z,0
2018-11-03T05:32:33.811Z,0
2018-11-03T05:32:59.950Z,0
2018-11-03T05:33:26.078Z,0
2018-11-03T05:33:52.209Z,0
2018-11-03T05:34:18.361Z,0
2018-11-03T05:34:44.518Z,0
2018-11-03T05:35:10.654Z,0
2018-11-03T05:35:36.793Z,0
2018-11-03T05:36:02.941Z,0
2018-11-03T05:36:29.073Z,0
2018-11-03T05:36:55.222Z,0
2018-11-03T05:37:21.369Z,0
2018-11-03T05:37:47.502Z,0
2018-11-03T05:38:13.637Z,0
2018-11-03T05:38:39.764Z,0
2018-11-03T05:39:05.954Z,0
2018-11-03T05:39:32.054Z,0
2018-11-03T05:39:58.210Z,0
2018-11-03T05:40:24.367Z,0
2018-11-03T05:40:50.498Z,0
2018-11-03T05:41:16.632Z,0
2018-11-03T05:41:42.751Z,0
2018-11-03T05:42:08.908Z,0
2018-11-03T05:42:35.042Z,0
2018-11-03T05:43:01.178Z,0
2018-11-03T05:43:27.340Z,0
2018-11-03T05:43:53.480Z,0
2018-11-03T05:44:19.607Z,0
2018-11-03T05:44:45.731Z,0
2018-11-03T05:45:11.859Z,0
2018-11-03T05:45:38.015Z,0
2018-11-03T05:46:04.169Z,0
2018-11-03T05:46:30.363Z,0
2018-11-03T05:46:56.478Z,0
2018-11-03T05:47:22.614Z,0
2018-11-03T05:47:48.750Z,0
2018-11-03T05:48:14.887Z,0
2018-11-03T05:48:41.062Z,0
2018-11-03T05:49:07.192Z,0
2018-11-03T05:49:33.330Z,0
2018-11-03T05:49:59.459Z,0
2018-11-03T05:50:25.585Z,0
2018-11-03T05:50:51.738Z,4
2018-11-03T05:51:17.902Z,4
2018-11-03T05:51:44.004Z,4
2018-11-03T05:52:10.132Z,4
2018-11-03T05:52:36.259Z,4
2018-11-03T05:53:02.390Z,4
2018-11-03T05:53:28.518Z,0
2018-11-03T05:53:54.642Z,4
2018-11-03T05:54:20.775Z,4
2018-11-03T05:54:46.903Z,4
2018-11-03T05:55:13.054Z,4
2018-11-03T05:55:39.207Z,4
2018-11-03T05:56:05.346Z,8
2018-11-03T05:56:31.467Z,4
2018-11-03T05:56:57.595Z,4
2018-11-03T05:57:23.728Z,8
2018-11-03T05:57:49.864Z,4
2018-11-03T05:58:16.009Z,8
2018-11-03T05:58:42.240Z,8
2018-11-03T05:59:08.517Z,8
2018-11-03T05:59:34.505Z,8
2018-11-03T06:00:00.637Z,12
2018-11-03T06:00:26.788Z,12
2018-11-03T06:00:52.914Z,12
2018-11-03T06:01:19.043Z,16
2018-11-03T06:01:45.201Z,16
2018-11-03T06:02:11.341Z,16
2018-11-03T06:02:37.486Z,16
2018-11-03T06:03:03.615Z,20
2018-11-03T06:03:29.749Z,24
2018-11-03T06:03:55.901Z,20
2018-11-03T06:04:22.028Z,24
2018-11-03T06:04:48.162Z,28
2018-11-03T06:05:14.294Z,32
2018-11-03T06:05:40.451Z,28
2018-11-03T06:06:06.606Z,32
2018-11-03T06:06:32.733Z,36
2018-11-03T06:06:58.861Z,40
2018-11-03T06:07:24.998Z,40
2018-11-03T06:07:51.149Z,44
2018-11-03T06:08:17.306Z,48
2018-11-03T06:08:43.479Z,48
2018-11-03T06:09:09.622Z,52
2018-11-03T06:09:35.729Z,60
2018-11-03T06:10:01.879Z,64
2018-11-03T06:10:28.026Z,68
2018-11-03T06:10:54.208Z,76
2018-11-03T06:11:20.347Z,76
2018-11-03T06:11:46.472Z,88
2018-11-03T06:12:12.633Z,92
2018-11-03T06:12:38.794Z,96
2018-11-03T06:13:04.921Z,104
2018-11-03T06:13:31.052Z,112
2018-11-03T06:13:57.207Z,120
2018-11-03T06:14:23.342Z,128
2018-11-03T06:14:49.468Z,136
2018-11-03T06:15:15.622Z,144
2018-11-03T06:15:41.851Z,152
2018-11-03T06:16:07.882Z,164
2018-11-03T06:16:34.034Z,172
2018-11-03T06:17:00.191Z,184
2018-11-03T06:17:26.326Z,196
2018-11-03T06:17:52.448Z,208
2018-11-03T06:18:18.633Z,224
2018-11-03T06:18:44.779Z,236
2018-11-03T06:19:10.936Z,248
2018-11-03T06:19:37.064Z,260
2018-11-03T06:20:03.195Z,268
2018-11-03T06:20:29.339Z,276
2018-11-03T06:20:55.473Z,288
2018-11-03T06:21:21.603Z,296
2018-11-03T06:21:47.729Z,300
2018-11-03T06:22:13.876Z,304
2018-11-03T06:22:40.246Z,312
2018-11-03T06:23:06.210Z,324
2018-11-03T06:23:32.434Z,336
2018-11-03T06:23:58.482Z,348
2018-11-03T06:24:24.612Z,360
2018-11-03T06:24:50.758Z,376
2018-11-03T06:25:16.918Z,396